sensor_id;sensor_type;location;lat;lon;timestamp;P1;durP1;ratioP1;P2;durP2;ratioP2
10418;SDS011;5256;48.728;9.140;2023-06-04T00:02:14;0.40;;;0.40;;
10418;SDS011;5256;48.728;9.140;2023-06-04T00:04:40;0.30;;;0.30;;
10418;SDS011;5256;48.728;9.140;2023-06-04T00:07:05;0.30;;;0.30;;
10418;SDS011;5256;48.728;9.140;2023-06-04T00:09:31;0.37;;;0.37;;
10418;SDS011;5256;48.728;9.140;2023-06-04T00:11:57;0.40;;;0.40;;
10418;SDS011;5256;48.728;9.140;2023-06-04T00:14:22;0.40;;;0.40;;
10418;SDS011;5256;48.728;9.140;2023-06-04T00:16:48;0.33;;;0.33;;
10418;SDS011;5256;48.728;9.140;2023-06-04T00:19:13;0.30;;;0.30;;
10418;SDS011;5256;48.728;9.140;2023-06-04T00:21:39;0.40;;;0.40;;
10418;SDS011;5256;48.728;9.140;2023-06-04T00:24:05;0.43;;;0.43;;
10418;SDS011;5256;48.728;9.140;2023-06-04T00:26:30;0.40;;;0.40;;
10418;SDS011;5256;48.728;9.140;2023-06-04T00:28:56;0.40;;;0.40;;
10418;SDS011;5256;48.728;9.140;2023-06-04T00:31:22;0.30;;;0.30;;
10418;SDS011;5256;48.728;9.140;2023-06-04T00:33:47;0.40;;;0.40;;
10418;SDS011;5256;48.728;9.140;2023-06-04T00:36:13;0.30;;;0.30;;
10418;SDS011;5256;48.728;9.140;2023-06-04T00:38:39;0.37;;;0.37;;
10418;SDS011;5256;48.728;9.140;2023-06-04T00:41:04;0.50;;;0.50;;
10418;SDS011;5256;48.728;9.140;2023-06-04T00:43:30;0.40;;;0.40;;
10418;SDS011;5256;48.728;9.140;2023-06-04T00:45:57;0.33;;;0.33;;
10418;SDS011;5256;48.728;9.140;2023-06-04T00:48:23;0.47;;;0.47;;
10418;SDS011;5256;48.728;9.140;2023-06-04T00:50:52;0.40;;;0.40;;
10418;SDS011;5256;48.728;9.140;2023-06-04T00:53:18;0.40;;;0.40;;
10418;SDS011;5256;48.728;9.140;2023-06-04T00:55:45;0.40;;;0.40;;
10418;SDS011;5256;48.728;9.140;2023-06-04T00:58:10;0.40;;;0.40;;
10418;SDS011;5256;48.728;9.140;2023-06-04T01:00:37;0.40;;;0.40;;
10418;SDS011;5256;48.728;9.140;2023-06-04T01:03:04;0.40;;;0.40;;
10418;SDS011;5256;48.728;9.140;2023-06-04T01:08:07;0.43;;;0.43;;
10418;SDS011;5256;48.728;9.140;2023-06-04T01:10:36;0.30;;;0.30;;
10418;SDS011;5256;48.728;9.140;2023-06-04T01:13:02;0.40;;;0.40;;
10418;SDS011;5256;48.728;9.140;2023-06-04T01:15:27;0.40;;;0.40;;
10418;SDS011;5256;48.728;9.140;2023-06-04T01:17:58;0.50;;;0.50;;
10418;SDS011;5256;48.728;9.140;2023-06-04T01:25:59;0.50;;;0.50;;
10418;SDS011;5256;48.728;9.140;2023-06-04T01:28:27;0.47;;;0.47;;
10418;SDS011;5256;48.728;9.140;2023-06-04T01:30:55;0.30;;;0.30;;
10418;SDS011;5256;48.728;9.140;2023-06-04T01:33:21;0.40;;;0.40;;
10418;SDS011;5256;48.728;9.140;2023-06-04T01:35:47;0.40;;;0.40;;
10418;SDS011;5256;48.728;9.140;2023-06-04T01:38:14;0.40;;;0.40;;
10418;SDS011;5256;48.728;9.140;2023-06-04T01:40:40;0.30;;;0.30;;
10418;SDS011;5256;48.728;9.140;2023-06-04T01:43:06;0.30;;;0.30;;
10418;SDS011;5256;48.728;9.140;2023-06-04T01:45:32;0.33;;;0.33;;
10418;SDS011;5256;48.728;9.140;2023-06-04T01:48:00;0.43;;;0.43;;
10418;SDS011;5256;48.728;9.140;2023-06-04T01:50:26;0.40;;;0.40;;
10418;SDS011;5256;48.728;9.140;2023-06-04T01:52:52;0.30;;;0.30;;
10418;SDS011;5256;48.728;9.140;2023-06-04T01:55:18;0.40;;;0.40;;
10418;SDS011;5256;48.728;9.140;2023-06-04T01:57:44;0.30;;;0.30;;
10418;SDS011;5256;48.728;9.140;2023-06-04T02:00:12;0.40;;;0.40;;
10418;SDS011;5256;48.728;9.140;2023-06-04T02:02:39;0.50;;;0.50;;
10418;SDS011;5256;48.728;9.140;2023-06-04T02:05:06;0.40;;;0.40;;
10418;SDS011;5256;48.728;9.140;2023-06-04T02:07:36;0.30;;;0.30;;
10418;SDS011;5256;48.728;9.140;2023-06-04T02:10:06;0.50;;;0.50;;
10418;SDS011;5256;48.728;9.140;2023-06-04T02:12:37;0.33;;;0.33;;
10418;SDS011;5256;48.728;9.140;2023-06-04T02:15:03;0.30;;;0.30;;
10418;SDS011;5256;48.728;9.140;2023-06-04T02:17:30;0.30;;;0.30;;
10418;SDS011;5256;48.728;9.140;2023-06-04T02:19:57;0.40;;;0.40;;
10418;SDS011;5256;48.728;9.140;2023-06-04T02:22:24;0.40;;;0.40;;
10418;SDS011;5256;48.728;9.140;2023-06-04T02:24:50;0.30;;;0.30;;
10418;SDS011;5256;48.728;9.140;2023-06-04T02:27:16;0.40;;;0.40;;
10418;SDS011;5256;48.728;9.140;2023-06-04T02:29:42;0.40;;;0.40;;
10418;SDS011;5256;48.728;9.140;2023-06-04T02:32:08;0.40;;;0.40;;
10418;SDS011;5256;48.728;9.140;2023-06-04T02:34:34;0.30;;;0.30;;
10418;SDS011;5256;48.728;9.140;2023-06-04T02:37:00;0.50;;;0.50;;
10418;SDS011;5256;48.728;9.140;2023-06-04T02:39:26;0.50;;;0.50;;
10418;SDS011;5256;48.728;9.140;2023-06-04T02:41:52;0.30;;;0.30;;
10418;SDS011;5256;48.728;9.140;2023-06-04T02:44:17;0.30;;;0.30;;
10418;SDS011;5256;48.728;9.140;2023-06-04T02:46:43;0.33;;;0.33;;
10418;SDS011;5256;48.728;9.140;2023-06-04T02:49:09;0.30;;;0.30;;
10418;SDS011;5256;48.728;9.140;2023-06-04T02:51:38;0.50;;;0.50;;
10418;SDS011;5256;48.728;9.140;2023-06-04T02:54:09;0.40;;;0.40;;
10418;SDS011;5256;48.728;9.140;2023-06-04T02:56:35;0.40;;;0.40;;
10418;SDS011;5256;48.728;9.140;2023-06-04T02:59:02;0.43;;;0.43;;
10418;SDS011;5256;48.728;9.140;2023-06-04T03:01:28;0.37;;;0.37;;
10418;SDS011;5256;48.728;9.140;2023-06-04T03:03:55;0.40;;;0.40;;
10418;SDS011;5256;48.728;9.140;2023-06-04T03:06:22;0.50;;;0.50;;
10418;SDS011;5256;48.728;9.140;2023-06-04T03:08:48;0.43;;;0.43;;
10418;SDS011;5256;48.728;9.140;2023-06-04T03:11:15;0.60;;;0.60;;
10418;SDS011;5256;48.728;9.140;2023-06-04T03:13:42;0.40;;;0.40;;
10418;SDS011;5256;48.728;9.140;2023-06-04T03:16:07;0.30;;;0.30;;
10418;SDS011;5256;48.728;9.140;2023-06-04T03:18:34;0.43;;;0.43;;
10418;SDS011;5256;48.728;9.140;2023-06-04T03:21:03;0.40;;;0.40;;
10418;SDS011;5256;48.728;9.140;2023-06-04T03:23:30;0.40;;;0.40;;
10418;SDS011;5256;48.728;9.140;2023-06-04T03:25:55;0.40;;;0.40;;
10418;SDS011;5256;48.728;9.140;2023-06-04T03:28:21;0.50;;;0.50;;
10418;SDS011;5256;48.728;9.140;2023-06-04T03:30:47;0.50;;;0.50;;
10418;SDS011;5256;48.728;9.140;2023-06-04T03:33:12;0.40;;;0.40;;
10418;SDS011;5256;48.728;9.140;2023-06-04T03:35:39;0.40;;;0.40;;
10418;SDS011;5256;48.728;9.140;2023-06-04T03:38:06;0.40;;;0.40;;
10418;SDS011;5256;48.728;9.140;2023-06-04T03:40:31;0.60;;;0.60;;
10418;SDS011;5256;48.728;9.140;2023-06-04T03:42:57;0.53;;;0.53;;
10418;SDS011;5256;48.728;9.140;2023-06-04T03:45:23;0.50;;;0.50;;
10418;SDS011;5256;48.728;9.140;2023-06-04T03:47:48;0.30;;;0.30;;
10418;SDS011;5256;48.728;9.140;2023-06-04T03:50:14;0.60;;;0.60;;
10418;SDS011;5256;48.728;9.140;2023-06-04T03:52:39;0.57;;;0.57;;
10418;SDS011;5256;48.728;9.140;2023-06-04T03:55:05;0.40;;;0.40;;
10418;SDS011;5256;48.728;9.140;2023-06-04T03:57:31;0.40;;;0.40;;
10418;SDS011;5256;48.728;9.140;2023-06-04T03:59:57;0.40;;;0.40;;
10418;SDS011;5256;48.728;9.140;2023-06-04T04:02:23;0.40;;;0.40;;
10418;SDS011;5256;48.728;9.140;2023-06-04T04:04:48;0.30;;;0.30;;
10418;SDS011;5256;48.728;9.140;2023-06-04T04:07:14;0.40;;;0.40;;
10418;SDS011;5256;48.728;9.140;2023-06-04T04:09:40;0.50;;;0.50;;
10418;SDS011;5256;48.728;9.140;2023-06-04T04:12:06;0.50;;;0.50;;
10418;SDS011;5256;48.728;9.140;2023-06-04T04:14:32;0.57;;;0.57;;
10418;SDS011;5256;48.728;9.140;2023-06-04T04:16:57;0.30;;;0.30;;
10418;SDS011;5256;48.728;9.140;2023-06-04T04:19:23;0.50;;;0.50;;
10418;SDS011;5256;48.728;9.140;2023-06-04T04:21:48;0.40;;;0.40;;
10418;SDS011;5256;48.728;9.140;2023-06-04T04:24:24;0.50;;;0.50;;
10418;SDS011;5256;48.728;9.140;2023-06-04T04:26:50;0.30;;;0.30;;
10418;SDS011;5256;48.728;9.140;2023-06-04T04:29:18;0.33;;;0.33;;
10418;SDS011;5256;48.728;9.140;2023-06-04T04:31:50;0.40;;;0.40;;
10418;SDS011;5256;48.728;9.140;2023-06-04T04:34:16;0.40;;;0.40;;
10418;SDS011;5256;48.728;9.140;2023-06-04T04:36:42;0.40;;;0.40;;
10418;SDS011;5256;48.728;9.140;2023-06-04T04:39:09;0.40;;;0.40;;
10418;SDS011;5256;48.728;9.140;2023-06-04T04:41:35;0.47;;;0.47;;
10418;SDS011;5256;48.728;9.140;2023-06-04T04:44:04;0.40;;;0.40;;
10418;SDS011;5256;48.728;9.140;2023-06-04T04:46:31;0.30;;;0.30;;
10418;SDS011;5256;48.728;9.140;2023-06-04T04:48:56;0.30;;;0.30;;
10418;SDS011;5256;48.728;9.140;2023-06-04T04:51:22;0.30;;;0.30;;
10418;SDS011;5256;48.728;9.140;2023-06-04T04:53:48;0.30;;;0.30;;
10418;SDS011;5256;48.728;9.140;2023-06-04T04:56:13;0.30;;;0.30;;
10418;SDS011;5256;48.728;9.140;2023-06-04T04:58:39;0.40;;;0.40;;
10418;SDS011;5256;48.728;9.140;2023-06-04T05:01:05;0.30;;;0.30;;
10418;SDS011;5256;48.728;9.140;2023-06-04T05:03:30;0.40;;;0.40;;
10418;SDS011;5256;48.728;9.140;2023-06-04T05:05:56;0.40;;;0.40;;
10418;SDS011;5256;48.728;9.140;2023-06-04T05:08:21;0.30;;;0.30;;
10418;SDS011;5256;48.728;9.140;2023-06-04T05:10:47;0.30;;;0.30;;
10418;SDS011;5256;48.728;9.140;2023-06-04T05:13:13;0.30;;;0.30;;
10418;SDS011;5256;48.728;9.140;2023-06-04T05:15:39;0.30;;;0.30;;
10418;SDS011;5256;48.728;9.140;2023-06-04T05:18:07;0.30;;;0.30;;
10418;SDS011;5256;48.728;9.140;2023-06-04T05:20:33;0.30;;;0.30;;
10418;SDS011;5256;48.728;9.140;2023-06-04T05:23:02;0.30;;;0.30;;
10418;SDS011;5256;48.728;9.140;2023-06-04T05:25:29;0.30;;;0.30;;
10418;SDS011;5256;48.728;9.140;2023-06-04T05:27:56;0.40;;;0.40;;
10418;SDS011;5256;48.728;9.140;2023-06-04T05:30:21;0.40;;;0.40;;
10418;SDS011;5256;48.728;9.140;2023-06-04T05:32:47;0.40;;;0.40;;
10418;SDS011;5256;48.728;9.140;2023-06-04T05:35:15;0.37;;;0.37;;
10418;SDS011;5256;48.728;9.140;2023-06-04T05:37:41;0.40;;;0.40;;
10418;SDS011;5256;48.728;9.140;2023-06-04T05:40:08;0.37;;;0.37;;
10418;SDS011;5256;48.728;9.140;2023-06-04T05:42:34;0.40;;;0.40;;
10418;SDS011;5256;48.728;9.140;2023-06-04T05:45:00;0.40;;;0.40;;
10418;SDS011;5256;48.728;9.140;2023-06-04T05:47:27;0.40;;;0.40;;
10418;SDS011;5256;48.728;9.140;2023-06-04T05:49:54;0.30;;;0.30;;
10418;SDS011;5256;48.728;9.140;2023-06-04T05:52:19;0.40;;;0.40;;
10418;SDS011;5256;48.728;9.140;2023-06-04T05:54:45;0.30;;;0.30;;
10418;SDS011;5256;48.728;9.140;2023-06-04T05:57:10;0.20;;;0.20;;
10418;SDS011;5256;48.728;9.140;2023-06-04T05:59:36;0.20;;;0.20;;
10418;SDS011;5256;48.728;9.140;2023-06-04T06:02:01;0.30;;;0.30;;
10418;SDS011;5256;48.728;9.140;2023-06-04T06:04:27;0.20;;;0.20;;
10418;SDS011;5256;48.728;9.140;2023-06-04T06:06:53;0.30;;;0.30;;
10418;SDS011;5256;48.728;9.140;2023-06-04T06:09:19;0.30;;;0.30;;
10418;SDS011;5256;48.728;9.140;2023-06-04T06:11:44;0.20;;;0.20;;
10418;SDS011;5256;48.728;9.140;2023-06-04T06:14:10;0.20;;;0.20;;
10418;SDS011;5256;48.728;9.140;2023-06-04T06:16:36;0.30;;;0.30;;
10418;SDS011;5256;48.728;9.140;2023-06-04T06:19:02;0.30;;;0.30;;
10418;SDS011;5256;48.728;9.140;2023-06-04T06:21:27;0.23;;;0.23;;
10418;SDS011;5256;48.728;9.140;2023-06-04T06:23:53;0.30;;;0.30;;
10418;SDS011;5256;48.728;9.140;2023-06-04T06:26:19;0.20;;;0.20;;
10418;SDS011;5256;48.728;9.140;2023-06-04T06:28:47;0.30;;;0.30;;
10418;SDS011;5256;48.728;9.140;2023-06-04T06:31:13;0.30;;;0.30;;
10418;SDS011;5256;48.728;9.140;2023-06-04T06:33:38;0.30;;;0.30;;
10418;SDS011;5256;48.728;9.140;2023-06-04T06:36:07;0.30;;;0.30;;
10418;SDS011;5256;48.728;9.140;2023-06-04T06:38:36;0.20;;;0.20;;
10418;SDS011;5256;48.728;9.140;2023-06-04T06:41:01;0.30;;;0.30;;
10418;SDS011;5256;48.728;9.140;2023-06-04T06:43:27;0.20;;;0.20;;
10418;SDS011;5256;48.728;9.140;2023-06-04T06:45:53;0.30;;;0.30;;
10418;SDS011;5256;48.728;9.140;2023-06-04T06:48:18;0.30;;;0.30;;
10418;SDS011;5256;48.728;9.140;2023-06-04T06:50:44;0.20;;;0.20;;
10418;SDS011;5256;48.728;9.140;2023-06-04T06:53:09;0.20;;;0.20;;
10418;SDS011;5256;48.728;9.140;2023-06-04T06:55:35;0.20;;;0.20;;
10418;SDS011;5256;48.728;9.140;2023-06-04T06:58:00;0.10;;;0.10;;
10418;SDS011;5256;48.728;9.140;2023-06-04T07:00:26;0.20;;;0.20;;
10418;SDS011;5256;48.728;9.140;2023-06-04T07:02:53;0.20;;;0.20;;
10418;SDS011;5256;48.728;9.140;2023-06-04T07:05:19;0.23;;;0.23;;
10418;SDS011;5256;48.728;9.140;2023-06-04T07:07:44;0.20;;;0.20;;
10418;SDS011;5256;48.728;9.140;2023-06-04T07:10:11;0.10;;;0.10;;
10418;SDS011;5256;48.728;9.140;2023-06-04T07:12:37;0.30;;;0.30;;
10418;SDS011;5256;48.728;9.140;2023-06-04T07:15:03;0.10;;;0.10;;
10418;SDS011;5256;48.728;9.140;2023-06-04T07:17:30;0.10;;;0.10;;
10418;SDS011;5256;48.728;9.140;2023-06-04T07:19:55;0.20;;;0.20;;
10418;SDS011;5256;48.728;9.140;2023-06-04T07:22:21;0.20;;;0.20;;
10418;SDS011;5256;48.728;9.140;2023-06-04T07:24:46;0.20;;;0.20;;
10418;SDS011;5256;48.728;9.140;2023-06-04T07:27:12;0.20;;;0.20;;
10418;SDS011;5256;48.728;9.140;2023-06-04T07:29:39;0.20;;;0.20;;
10418;SDS011;5256;48.728;9.140;2023-06-04T07:32:05;0.20;;;0.20;;
10418;SDS011;5256;48.728;9.140;2023-06-04T07:34:31;0.10;;;0.10;;
10418;SDS011;5256;48.728;9.140;2023-06-04T07:36:57;0.20;;;0.20;;
10418;SDS011;5256;48.728;9.140;2023-06-04T07:39:23;0.10;;;0.10;;
10418;SDS011;5256;48.728;9.140;2023-06-04T07:41:48;0.17;;;0.17;;
10418;SDS011;5256;48.728;9.140;2023-06-04T07:44:14;0.20;;;0.20;;
10418;SDS011;5256;48.728;9.140;2023-06-04T07:46:39;0.20;;;0.20;;
10418;SDS011;5256;48.728;9.140;2023-06-04T07:49:05;0.20;;;0.20;;
10418;SDS011;5256;48.728;9.140;2023-06-04T07:51:31;0.20;;;0.20;;
10418;SDS011;5256;48.728;9.140;2023-06-04T07:53:56;0.23;;;0.23;;
10418;SDS011;5256;48.728;9.140;2023-06-04T07:56:22;0.20;;;0.20;;
10418;SDS011;5256;48.728;9.140;2023-06-04T07:58:48;0.17;;;0.17;;
10418;SDS011;5256;48.728;9.140;2023-06-04T08:01:13;0.20;;;0.20;;
10418;SDS011;5256;48.728;9.140;2023-06-04T08:03:39;0.20;;;0.20;;
10418;SDS011;5256;48.728;9.140;2023-06-04T08:06:06;0.20;;;0.20;;
10418;SDS011;5256;48.728;9.140;2023-06-04T08:08:32;0.20;;;0.20;;
10418;SDS011;5256;48.728;9.140;2023-06-04T08:10:59;0.20;;;0.20;;
10418;SDS011;5256;48.728;9.140;2023-06-04T08:13:25;0.20;;;0.20;;
10418;SDS011;5256;48.728;9.140;2023-06-04T08:15:51;0.10;;;0.10;;
10418;SDS011;5256;48.728;9.140;2023-06-04T08:18:16;0.17;;;0.17;;
10418;SDS011;5256;48.728;9.140;2023-06-04T08:20:42;0.20;;;0.20;;
10418;SDS011;5256;48.728;9.140;2023-06-04T08:23:07;0.20;;;0.20;;
10418;SDS011;5256;48.728;9.140;2023-06-04T08:25:33;0.20;;;0.20;;
10418;SDS011;5256;48.728;9.140;2023-06-04T08:27:58;0.20;;;0.20;;
10418;SDS011;5256;48.728;9.140;2023-06-04T08:30:25;0.20;;;0.20;;
10418;SDS011;5256;48.728;9.140;2023-06-04T08:32:52;0.20;;;0.20;;
10418;SDS011;5256;48.728;9.140;2023-06-04T08:35:18;0.30;;;0.30;;
10418;SDS011;5256;48.728;9.140;2023-06-04T08:37:43;0.17;;;0.17;;
10418;SDS011;5256;48.728;9.140;2023-06-04T08:40:09;0.20;;;0.20;;
10418;SDS011;5256;48.728;9.140;2023-06-04T08:42:40;0.20;;;0.20;;
10418;SDS011;5256;48.728;9.140;2023-06-04T08:45:10;0.20;;;0.20;;
10418;SDS011;5256;48.728;9.140;2023-06-04T08:47:38;0.10;;;0.10;;
10418;SDS011;5256;48.728;9.140;2023-06-04T08:50:09;0.30;;;0.30;;
10418;SDS011;5256;48.728;9.140;2023-06-04T08:52:36;0.20;;;0.20;;
10418;SDS011;5256;48.728;9.140;2023-06-04T08:55:03;0.27;;;0.27;;
10418;SDS011;5256;48.728;9.140;2023-06-04T08:57:30;0.20;;;0.20;;
10418;SDS011;5256;48.728;9.140;2023-06-04T08:59:56;0.20;;;0.20;;
10418;SDS011;5256;48.728;9.140;2023-06-04T09:02:22;0.20;;;0.20;;
10418;SDS011;5256;48.728;9.140;2023-06-04T09:04:48;0.20;;;0.20;;
10418;SDS011;5256;48.728;9.140;2023-06-04T09:07:15;0.20;;;0.20;;
10418;SDS011;5256;48.728;9.140;2023-06-04T09:09:42;0.20;;;0.20;;
10418;SDS011;5256;48.728;9.140;2023-06-04T09:12:11;0.20;;;0.20;;
10418;SDS011;5256;48.728;9.140;2023-06-04T09:14:43;0.20;;;0.20;;
10418;SDS011;5256;48.728;9.140;2023-06-04T09:17:09;0.20;;;0.20;;
10418;SDS011;5256;48.728;9.140;2023-06-04T09:19:34;0.10;;;0.10;;
10418;SDS011;5256;48.728;9.140;2023-06-04T09:22:00;0.20;;;0.20;;
10418;SDS011;5256;48.728;9.140;2023-06-04T09:24:43;0.10;;;0.10;;
10418;SDS011;5256;48.728;9.140;2023-06-04T09:27:21;0.20;;;0.20;;
10418;SDS011;5256;48.728;9.140;2023-06-04T09:29:54;0.13;;;0.13;;
10418;SDS011;5256;48.728;9.140;2023-06-04T09:32:30;0.17;;;0.17;;
10418;SDS011;5256;48.728;9.140;2023-06-04T09:34:56;0.10;;;0.10;;
10418;SDS011;5256;48.728;9.140;2023-06-04T09:37:37;0.20;;;0.20;;
10418;SDS011;5256;48.728;9.140;2023-06-04T09:40:04;0.17;;;0.17;;
10418;SDS011;5256;48.728;9.140;2023-06-04T09:42:30;0.20;;;0.20;;
10418;SDS011;5256;48.728;9.140;2023-06-04T09:45:07;0.10;;;0.10;;
10418;SDS011;5256;48.728;9.140;2023-06-04T09:47:43;0.10;;;0.10;;
10418;SDS011;5256;48.728;9.140;2023-06-04T09:50:12;0.20;;;0.20;;
10418;SDS011;5256;48.728;9.140;2023-06-04T09:52:38;0.20;;;0.20;;
10418;SDS011;5256;48.728;9.140;2023-06-04T09:55:26;0.20;;;0.20;;
10418;SDS011;5256;48.728;9.140;2023-06-04T09:57:51;0.10;;;0.10;;
10418;SDS011;5256;48.728;9.140;2023-06-04T10:00:18;0.10;;;0.10;;
10418;SDS011;5256;48.728;9.140;2023-06-04T10:02:46;0.17;;;0.17;;
10418;SDS011;5256;48.728;9.140;2023-06-04T10:05:12;0.20;;;0.20;;
10418;SDS011;5256;48.728;9.140;2023-06-04T10:07:39;0.20;;;0.20;;
10418;SDS011;5256;48.728;9.140;2023-06-04T10:10:11;0.10;;;0.10;;
10418;SDS011;5256;48.728;9.140;2023-06-04T10:12:41;0.20;;;0.20;;
10418;SDS011;5256;48.728;9.140;2023-06-04T10:15:12;0.20;;;0.20;;
10418;SDS011;5256;48.728;9.140;2023-06-04T10:17:38;0.10;;;0.10;;
10418;SDS011;5256;48.728;9.140;2023-06-04T10:20:04;0.10;;;0.10;;
10418;SDS011;5256;48.728;9.140;2023-06-04T10:22:33;0.10;;;0.10;;
10418;SDS011;5256;48.728;9.140;2023-06-04T10:25:03;0.10;;;0.10;;
10418;SDS011;5256;48.728;9.140;2023-06-04T10:27:32;0.20;;;0.20;;
10418;SDS011;5256;48.728;9.140;2023-06-04T10:30:00;0.10;;;0.10;;
10418;SDS011;5256;48.728;9.140;2023-06-04T10:32:28;0.10;;;0.10;;
10418;SDS011;5256;48.728;9.140;2023-06-04T10:34:54;0.10;;;0.10;;
10418;SDS011;5256;48.728;9.140;2023-06-04T10:37:24;0.10;;;0.10;;
10418;SDS011;5256;48.728;9.140;2023-06-04T10:39:54;0.10;;;0.10;;
10418;SDS011;5256;48.728;9.140;2023-06-04T10:42:21;0.10;;;0.10;;
10418;SDS011;5256;48.728;9.140;2023-06-04T10:44:48;0.20;;;0.20;;
10418;SDS011;5256;48.728;9.140;2023-06-04T10:47:21;0.17;;;0.17;;
10418;SDS011;5256;48.728;9.140;2023-06-04T10:49:48;0.10;;;0.10;;
10418;SDS011;5256;48.728;9.140;2023-06-04T10:52:15;0.10;;;0.10;;
10418;SDS011;5256;48.728;9.140;2023-06-04T10:54:42;0.20;;;0.20;;
10418;SDS011;5256;48.728;9.140;2023-06-04T10:57:12;0.10;;;0.10;;
10418;SDS011;5256;48.728;9.140;2023-06-04T10:59:38;0.10;;;0.10;;
10418;SDS011;5256;48.728;9.140;2023-06-04T11:02:07;0.10;;;0.10;;
10418;SDS011;5256;48.728;9.140;2023-06-04T11:04:35;0.10;;;0.10;;
10418;SDS011;5256;48.728;9.140;2023-06-04T11:07:02;0.10;;;0.10;;
10418;SDS011;5256;48.728;9.140;2023-06-04T11:09:29;0.20;;;0.20;;
10418;SDS011;5256;48.728;9.140;2023-06-04T11:11:59;0.20;;;0.20;;
10418;SDS011;5256;48.728;9.140;2023-06-04T11:14:25;0.10;;;0.10;;
10418;SDS011;5256;48.728;9.140;2023-06-04T11:16:51;0.17;;;0.17;;
10418;SDS011;5256;48.728;9.140;2023-06-04T11:19:17;0.10;;;0.10;;
10418;SDS011;5256;48.728;9.140;2023-06-04T11:21:43;0.10;;;0.10;;
10418;SDS011;5256;48.728;9.140;2023-06-04T11:24:08;0.20;;;0.20;;
10418;SDS011;5256;48.728;9.140;2023-06-04T11:26:34;0.10;;;0.10;;
10418;SDS011;5256;48.728;9.140;2023-06-04T11:29:02;0.17;;;0.17;;
10418;SDS011;5256;48.728;9.140;2023-06-04T11:31:41;0.10;;;0.10;;
10418;SDS011;5256;48.728;9.140;2023-06-04T11:34:21;0.10;;;0.10;;
10418;SDS011;5256;48.728;9.140;2023-06-04T11:36:48;0.13;;;0.13;;
10418;SDS011;5256;48.728;9.140;2023-06-04T11:39:14;0.10;;;0.10;;
10418;SDS011;5256;48.728;9.140;2023-06-04T11:41:40;0.20;;;0.20;;
10418;SDS011;5256;48.728;9.140;2023-06-04T11:44:07;0.10;;;0.10;;
10418;SDS011;5256;48.728;9.140;2023-06-04T11:46:34;0.10;;;0.10;;
10418;SDS011;5256;48.728;9.140;2023-06-04T11:49:01;0.10;;;0.10;;
10418;SDS011;5256;48.728;9.140;2023-06-04T11:51:27;0.10;;;0.10;;
10418;SDS011;5256;48.728;9.140;2023-06-04T11:53:53;0.10;;;0.10;;
10418;SDS011;5256;48.728;9.140;2023-06-04T11:56:20;0.17;;;0.17;;
10418;SDS011;5256;48.728;9.140;2023-06-04T11:58:46;0.10;;;0.10;;
10418;SDS011;5256;48.728;9.140;2023-06-04T12:01:12;0.10;;;0.10;;
10418;SDS011;5256;48.728;9.140;2023-06-04T12:03:41;0.20;;;0.20;;
10418;SDS011;5256;48.728;9.140;2023-06-04T12:06:17;0.20;;;0.20;;
10418;SDS011;5256;48.728;9.140;2023-06-04T12:11:27;0.20;;;0.20;;
10418;SDS011;5256;48.728;9.140;2023-06-04T12:13:56;0.20;;;0.20;;
10418;SDS011;5256;48.728;9.140;2023-06-04T12:16:23;0.10;;;0.10;;
10418;SDS011;5256;48.728;9.140;2023-06-04T12:18:50;0.20;;;0.20;;
10418;SDS011;5256;48.728;9.140;2023-06-04T12:21:23;0.17;;;0.17;;
10418;SDS011;5256;48.728;9.140;2023-06-04T12:24:11;0.10;;;0.10;;
10418;SDS011;5256;48.728;9.140;2023-06-04T12:26:38;0.10;;;0.10;;
10418;SDS011;5256;48.728;9.140;2023-06-04T12:29:13;0.10;;;0.10;;
10418;SDS011;5256;48.728;9.140;2023-06-04T12:31:40;0.10;;;0.10;;
10418;SDS011;5256;48.728;9.140;2023-06-04T12:34:07;0.20;;;0.20;;
10418;SDS011;5256;48.728;9.140;2023-06-04T12:36:33;0.10;;;0.10;;
10418;SDS011;5256;48.728;9.140;2023-06-04T12:39:00;0.20;;;0.20;;
10418;SDS011;5256;48.728;9.140;2023-06-04T12:41:29;0.10;;;0.10;;
10418;SDS011;5256;48.728;9.140;2023-06-04T12:43:56;0.20;;;0.20;;
10418;SDS011;5256;48.728;9.140;2023-06-04T12:46:22;0.20;;;0.20;;
10418;SDS011;5256;48.728;9.140;2023-06-04T12:48:49;0.20;;;0.20;;
10418;SDS011;5256;48.728;9.140;2023-06-04T12:51:15;0.10;;;0.10;;
10418;SDS011;5256;48.728;9.140;2023-06-04T12:53:41;0.20;;;0.20;;
10418;SDS011;5256;48.728;9.140;2023-06-04T12:56:07;0.20;;;0.20;;
10418;SDS011;5256;48.728;9.140;2023-06-04T12:58:34;0.20;;;0.20;;
10418;SDS011;5256;48.728;9.140;2023-06-04T13:01:00;0.13;;;0.13;;
10418;SDS011;5256;48.728;9.140;2023-06-04T13:03:26;0.20;;;0.20;;
10418;SDS011;5256;48.728;9.140;2023-06-04T13:05:52;0.20;;;0.20;;
10418;SDS011;5256;48.728;9.140;2023-06-04T13:08:21;0.10;;;0.10;;
10418;SDS011;5256;48.728;9.140;2023-06-04T13:10:47;0.20;;;0.20;;
10418;SDS011;5256;48.728;9.140;2023-06-04T13:13:13;0.20;;;0.20;;
10418;SDS011;5256;48.728;9.140;2023-06-04T13:15:43;0.10;;;0.10;;
10418;SDS011;5256;48.728;9.140;2023-06-04T13:18:09;0.20;;;0.20;;
10418;SDS011;5256;48.728;9.140;2023-06-04T13:20:35;0.20;;;0.20;;
10418;SDS011;5256;48.728;9.140;2023-06-04T13:23:01;0.20;;;0.20;;
10418;SDS011;5256;48.728;9.140;2023-06-04T13:25:27;0.10;;;0.10;;
10418;SDS011;5256;48.728;9.140;2023-06-04T13:27:57;0.13;;;0.13;;
10418;SDS011;5256;48.728;9.140;2023-06-04T13:30:23;0.20;;;0.20;;
10418;SDS011;5256;48.728;9.140;2023-06-04T13:32:49;0.10;;;0.10;;
10418;SDS011;5256;48.728;9.140;2023-06-04T13:35:15;0.10;;;0.10;;
10418;SDS011;5256;48.728;9.140;2023-06-04T13:37:40;0.20;;;0.20;;
10418;SDS011;5256;48.728;9.140;2023-06-04T13:40:06;0.20;;;0.20;;
10418;SDS011;5256;48.728;9.140;2023-06-04T13:42:33;0.20;;;0.20;;
10418;SDS011;5256;48.728;9.140;2023-06-04T13:44:58;0.20;;;0.20;;
10418;SDS011;5256;48.728;9.140;2023-06-04T13:47:24;0.10;;;0.10;;
10418;SDS011;5256;48.728;9.140;2023-06-04T13:49:50;0.20;;;0.20;;
10418;SDS011;5256;48.728;9.140;2023-06-04T13:52:15;0.20;;;0.20;;
10418;SDS011;5256;48.728;9.140;2023-06-04T13:54:42;0.20;;;0.20;;
10418;SDS011;5256;48.728;9.140;2023-06-04T13:57:07;0.13;;;0.13;;
10418;SDS011;5256;48.728;9.140;2023-06-04T13:59:36;0.10;;;0.10;;
10418;SDS011;5256;48.728;9.140;2023-06-04T14:02:02;0.10;;;0.10;;
10418;SDS011;5256;48.728;9.140;2023-06-04T14:04:28;0.10;;;0.10;;
10418;SDS011;5256;48.728;9.140;2023-06-04T14:06:53;0.10;;;0.10;;
10418;SDS011;5256;48.728;9.140;2023-06-04T14:09:19;0.10;;;0.10;;
10418;SDS011;5256;48.728;9.140;2023-06-04T14:11:45;0.10;;;0.10;;
10418;SDS011;5256;48.728;9.140;2023-06-04T14:14:15;0.10;;;0.10;;
10418;SDS011;5256;48.728;9.140;2023-06-04T14:16:46;0.10;;;0.10;;
10418;SDS011;5256;48.728;9.140;2023-06-04T14:19:12;0.10;;;0.10;;
10418;SDS011;5256;48.728;9.140;2023-06-04T14:21:38;0.10;;;0.10;;
10418;SDS011;5256;48.728;9.140;2023-06-04T14:24:05;0.10;;;0.10;;
10418;SDS011;5256;48.728;9.140;2023-06-04T14:26:30;0.10;;;0.10;;
10418;SDS011;5256;48.728;9.140;2023-06-04T14:28:56;0.10;;;0.10;;
10418;SDS011;5256;48.728;9.140;2023-06-04T14:31:22;0.10;;;0.10;;
10418;SDS011;5256;48.728;9.140;2023-06-04T14:33:48;0.10;;;0.10;;
10418;SDS011;5256;48.728;9.140;2023-06-04T14:36:13;0.10;;;0.10;;
10418;SDS011;5256;48.728;9.140;2023-06-04T14:38:39;0.10;;;0.10;;
10418;SDS011;5256;48.728;9.140;2023-06-04T14:41:05;0.10;;;0.10;;
10418;SDS011;5256;48.728;9.140;2023-06-04T14:43:31;0.10;;;0.10;;
10418;SDS011;5256;48.728;9.140;2023-06-04T14:45:56;0.10;;;0.10;;
10418;SDS011;5256;48.728;9.140;2023-06-04T14:48:22;0.10;;;0.10;;
10418;SDS011;5256;48.728;9.140;2023-06-04T14:50:48;0.10;;;0.10;;
10418;SDS011;5256;48.728;9.140;2023-06-04T14:53:14;0.10;;;0.10;;
10418;SDS011;5256;48.728;9.140;2023-06-04T14:55:41;0.10;;;0.10;;
10418;SDS011;5256;48.728;9.140;2023-06-04T14:58:07;0.10;;;0.10;;
10418;SDS011;5256;48.728;9.140;2023-06-04T15:00:32;0.10;;;0.10;;
10418;SDS011;5256;48.728;9.140;2023-06-04T15:02:58;0.10;;;0.10;;
10418;SDS011;5256;48.728;9.140;2023-06-04T15:05:25;0.10;;;0.10;;
10418;SDS011;5256;48.728;9.140;2023-06-04T15:07:50;0.17;;;0.17;;
10418;SDS011;5256;48.728;9.140;2023-06-04T15:10:16;0.00;;;0.00;;